Time,TemperatureF,DewpointF,PressureIn,WindDirection,WindDirectionDegrees,WindSpeedMPH,WindSpeedGustMPH,Humidity,HourlyPrecipIn,Conditions,Clouds,dailyrainin,SoftwareType,DateUTC
2013-03-11 00:02:00,40.3,17.9,29.90,WSW,240,4.0,4.0,40,0.00,,---,0.00,VWS V14.00,2013-03-11 06:02:00,
2013-03-11 00:07:00,40.4,17.4,29.90,WSW,244,4.0,4.0,39,0.00,,---,0.00,VWS V14.00,2013-03-11 06:07:00,
2013-03-11 00:12:00,40.3,17.9,29.89,WSW,248,0.0,4.0,40,0.00,,---,0.00,VWS V14.00,2013-03-11 06:12:00,
2013-03-11 00:17:00,39.9,17.5,29.89,WSW,248,0.0,0.0,40,0.00,,---,0.00,VWS V14.00,2013-03-11 06:17:00,
2013-03-11 00:22:00,39.8,18.0,29.89,WSW,251,0.0,3.0,41,0.00,,---,0.00,VWS V14.00,2013-03-11 06:22:00,
2013-03-11 00:27:00,39.8,18.6,29.89,NW,319,5.0,5.0,42,0.00,,---,0.00,VWS V14.00,2013-03-11 06:27:00,
2013-03-11 00:32:00,39.8,18.0,29.89,NNW,332,4.0,8.0,41,0.00,,---,0.00,VWS V14.00,2013-03-11 06:32:00,
2013-03-11 00:37:00,39.8,18.0,29.89,NNW,346,0.0,2.0,41,0.00,,---,0.00,VWS V14.00,2013-03-11 06:37:00,
2013-03-11 00:43:00,40.1,17.7,29.89,WNW,290,0.0,4.0,40,0.00,,---,0.00,VWS V14.00,2013-03-11 06:43:00,
2013-03-11 00:48:00,40.3,17.9,29.88,North,360,0.0,2.0,40,0.00,,---,0.00,VWS V14.00,2013-03-11 06:48:00,
2013-03-11 00:53:00,40.5,17.5,29.88,North,350,0.0,2.0,39,0.00,,---,0.00,VWS V14.00,2013-03-11 06:53:00,
2013-03-11 00:58:00,40.7,18.3,29.88,North,350,0.0,0.0,40,0.00,,---,0.00,VWS V14.00,2013-03-11 06:58:00,
2013-03-11 01:03:00,40.8,17.8,29.87,North,360,0.0,1.0,39,0.00,,---,0.00,VWS V14.00,2013-03-11 07:03:00,
2013-03-11 01:08:00,40.9,17.9,29.87,NE,37,0.0,2.0,39,0.00,,---,0.00,VWS V14.00,2013-03-11 07:08:00,
2013-03-11 01:13:00,40.9,17.3,29.87,ESE,114,0.0,5.0,38,0.00,,---,0.00,VWS V14.00,2013-03-11 07:13:00,
2013-03-11 01:19:00,41.5,16.5,29.87,ESE,116,0.0,9.0,36,0.00,,---,0.00,VWS V14.00,2013-03-11 07:19:00,
2013-03-11 01:24:00,41.8,17.5,29.87,ESE,116,0.0,9.0,37,0.00,,---,0.00,VWS V14.00,2013-03-11 07:24:00,
2013-03-11 01:29:00,41.9,16.9,29.87,ESE,116,0.0,4.0,36,0.00,,---,0.00,VWS V14.00,2013-03-11 07:29:00,
2013-03-11 01:34:00,42.2,17.2,29.86,WSW,245,0.0,7.0,36,0.00,,---,0.00,VWS V14.00,2013-03-11 07:34:00,
2013-03-11 01:39:00,42.2,17.2,29.86,West,279,4.0,4.0,36,0.00,,---,0.00,VWS V14.00,2013-03-11 07:39:00,
2013-03-11 01:45:00,42.1,17.1,29.86,West,281,0.0,4.0,36,0.00,,---,0.00,VWS V14.00,2013-03-11 07:45:00,
2013-03-11 01:50:00,42.2,17.2,29.86,West,278,0.0,2.0,36,0.00,,---,0.00,VWS V14.00,2013-03-11 07:50:00,
2013-03-11 01:55:00,42.2,17.2,29.85,NW,306,2.0,4.0,36,0.00,,---,0.00,VWS V14.00,2013-03-11 07:55:00,
2013-03-11 02:00:00,42.3,16.6,29.85,NW,308,0.0,3.0,35,0.00,,---,0.00,VWS V14.00,2013-03-11 08:00:00,
2013-03-11 02:05:00,42.4,17.4,29.85,NW,313,4.0,5.0,36,0.00,,---,0.00,VWS V14.00,2013-03-11 08:05:00,
2013-03-11 02:11:00,42.4,18.0,29.85,NW,323,0.0,5.0,37,0.00,,---,0.00,VWS V14.00,2013-03-11 08:11:00,
2013-03-11 02:16:00,42.0,17.6,29.85,NW,323,0.0,2.0,37,0.00,,---,0.00,VWS V14.00,2013-03-11 08:16:00,
2013-03-11 02:22:00,41.9,17.5,29.85,NW,325,0.0,4.0,37,0.00,,---,0.00,VWS V14.00,2013-03-11 08:22:00,
2013-03-11 02:27:00,41.8,16.2,29.84,West,275,0.0,0.0,35,0.00,,---,0.00,VWS V14.00,2013-03-11 08:27:00,
2013-03-11 02:32:00,41.7,17.4,29.84,SW,227,4.0,6.0,37,0.00,,---,0.00,VWS V14.00,2013-03-11 08:32:00,
2013-03-11 02:37:00,41.6,17.3,29.84,SW,235,3.0,5.0,37,0.00,,---,0.00,VWS V14.00,2013-03-11 08:37:00,
2013-03-11 02:42:00,41.5,17.2,29.83,SSW,206,5.0,6.0,37,0.00,,---,0.00,VWS V14.00,2013-03-11 08:42:00,
2013-03-11 02:47:00,41.3,17.0,29.83,SW,215,5.0,6.0,37,0.00,,---,0.00,VWS V14.00,2013-03-11 08:47:00,
2013-03-11 02:53:00,41.1,17.4,29.83,SW,225,5.0,8.0,38,0.00,,---,0.00,VWS V14.00,2013-03-11 08:53:00,
2013-03-11 02:58:00,41.0,16.7,29.83,SW,219,5.0,5.0,37,0.00,,---,0.00,VWS V14.00,2013-03-11 08:58:00,
2013-03-11 03:03:00,40.7,18.9,29.83,North,349,2.0,6.0,41,0.00,,---,0.00,VWS V14.00,2013-03-11 09:03:00,
2013-03-11 03:08:00,39.7,17.4,29.82,North,350,1.0,2.0,40,0.00,,---,0.00,VWS V14.00,2013-03-11 09:08:00,
2013-03-11 03:13:00,39.9,17.0,29.82,West,259,0.0,6.0,39,0.00,,---,0.00,VWS V14.00,2013-03-11 09:13:00,
2013-03-11 03:18:00,39.6,17.9,29.81,West,259,0.0,1.0,41,0.00,,---,0.00,VWS V14.00,2013-03-11 09:18:00,
2013-03-11 03:24:00,40.0,17.1,29.81,West,259,0.0,2.0,39,0.00,,---,0.00,VWS V14.00,2013-03-11 09:24:00,
2013-03-11 03:29:00,40.6,17.0,29.82,West,259,1.0,1.0,38,0.00,,---,0.00,VWS V14.00,2013-03-11 09:29:00,
2013-03-11 03:34:00,40.6,17.0,29.81,West,259,0.0,2.0,38,0.00,,---,0.00,VWS V14.00,2013-03-11 09:34:00,
2013-03-11 03:39:00,40.6,16.4,29.80,North,355,7.0,7.0,37,0.00,,---,0.00,VWS V14.00,2013-03-11 09:39:00,
2013-03-11 03:44:00,39.8,16.3,29.81,NNW,346,0.0,7.0,38,0.00,,---,0.00,VWS V14.00,2013-03-11 09:44:00,
2013-03-11 03:50:00,39.4,17.7,29.80,North,360,0.0,4.0,41,0.00,,---,0.00,VWS V14.00,2013-03-11 09:50:00,
2013-03-11 03:55:00,39.2,17.5,29.80,North,360,2.0,4.0,41,0.00,,---,0.00,VWS V14.00,2013-03-11 09:55:00,
2013-03-11 04:00:00,39.4,18.2,29.80,North,360,3.0,4.0,42,0.00,,---,0.00,VWS V14.00,2013-03-11 10:00:00,
2013-03-11 04:05:00,39.1,18.0,29.79,North,360,0.0,4.0,42,0.00,,---,0.00,VWS V14.00,2013-03-11 10:05:00,
2013-03-11 04:10:00,39.7,18.5,29.80,North,360,0.0,0.0,42,0.00,,---,0.00,VWS V14.00,2013-03-11 10:10:00,
2013-03-11 04:15:00,39.3,17.6,29.79,North,360,2.0,3.0,41,0.00,,---,0.00,VWS V14.00,2013-03-11 10:15:00,
2013-03-11 04:20:00,39.3,18.1,29.79,WSW,257,6.0,9.0,42,0.00,,---,0.00,VWS V14.00,2013-03-11 10:20:00,
2013-03-11 04:26:00,40.9,16.6,29.79,SSW,213,4.0,6.0,37,0.00,,---,0.00,VWS V14.00,2013-03-11 10:26:00,
2013-03-11 04:31:00,41.4,17.1,29.79,SW,228,0.0,6.0,37,0.00,,---,0.00,VWS V14.00,2013-03-11 10:31:00,
2013-03-11 04:36:00,41.4,17.7,29.79,SW,227,0.0,0.0,38,0.00,,---,0.00,VWS V14.00,2013-03-11 10:36:00,
2013-03-11 04:42:00,40.5,17.5,29.79,West,281,3.0,9.0,39,0.00,,---,0.00,VWS V14.00,2013-03-11 10:42:00,
2013-03-11 04:47:00,40.9,17.3,29.79,NW,320,4.0,8.0,38,0.00,,---,0.00,VWS V14.00,2013-03-11 10:47:00,
2013-03-11 04:52:00,41.3,17.6,29.79,ENE,66,2.0,8.0,38,0.00,,---,0.00,VWS V14.00,2013-03-11 10:52:00,
2013-03-11 04:57:00,41.8,17.5,29.79,South,184,5.0,11.0,37,0.00,,---,0.00,VWS V14.00,2013-03-11 10:57:00,
2013-03-11 05:02:00,42.2,17.8,29.79,SSW,212,5.0,12.0,37,0.00,,---,0.00,VWS V14.00,2013-03-11 11:02:00,
2013-03-11 05:07:00,42.0,17.0,29.78,NE,51,6.0,6.0,36,0.00,,---,0.00,VWS V14.00,2013-03-11 11:07:00,
2013-03-11 05:13:00,42.0,17.0,29.79,ENE,73,4.0,8.0,36,0.00,,---,0.00,VWS V14.00,2013-03-11 11:13:00,
2013-03-11 05:18:00,42.3,17.3,29.78,West,276,5.0,10.0,36,0.00,,---,0.00,VWS V14.00,2013-03-11 11:18:00,
2013-03-11 05:23:00,42.3,17.9,29.78,ENE,78,2.0,10.0,37,0.00,,---,0.00,VWS V14.00,2013-03-11 11:23:00,
2013-03-11 05:28:00,42.2,17.2,29.78,NNE,15,4.0,8.0,36,0.00,,---,0.00,VWS V14.00,2013-03-11 11:28:00,
2013-03-11 05:33:00,42.0,17.6,29.79,NNE,26,0.0,8.0,37,0.00,,---,0.00,VWS V14.00,2013-03-11 11:33:00,
2013-03-11 05:39:00,41.5,17.2,29.78,NNE,25,0.0,3.0,37,0.00,,---,0.00,VWS V14.00,2013-03-11 11:39:00,
2013-03-11 05:44:00,40.9,17.3,29.79,North,5,3.0,5.0,38,0.00,,---,0.00,VWS V14.00,2013-03-11 11:44:00,
2013-03-11 05:49:00,40.6,17.0,29.78,North,5,0.0,0.0,38,0.00,,---,0.00,VWS V14.00,2013-03-11 11:49:00,
2013-03-11 05:55:00,40.8,17.2,29.78,ENE,67,0.0,4.0,38,0.00,,---,0.00,VWS V14.00,2013-03-11 11:55:00,
2013-03-11 06:00:00,41.3,17.6,29.78,North,355,4.0,7.0,38,0.00,,---,0.00,VWS V14.00,2013-03-11 12:00:00,
2013-03-11 06:05:00,41.7,16.1,29.78,SSE,153,0.0,7.0,35,0.00,,---,0.00,VWS V14.00,2013-03-11 12:05:00,
2013-03-11 06:10:00,42.4,16.7,29.79,WSW,239,0.0,5.0,35,0.00,,---,0.00,VWS V14.00,2013-03-11 12:10:00,
2013-03-11 06:15:00,42.4,15.4,29.79,North,360,3.0,8.0,33,0.00,,---,0.00,VWS V14.00,2013-03-11 12:15:00,
2013-03-11 06:20:00,43.0,15.9,29.79,SE,130,1.0,13.0,33,0.00,,---,0.00,VWS V14.00,2013-03-11 12:20:00,
2013-03-11 06:25:00,43.2,15.4,29.79,SE,140,1.0,2.0,32,0.00,,---,0.00,VWS V14.00,2013-03-11 12:25:00,
2013-03-11 06:30:00,43.2,16.1,29.80,NW,318,4.0,8.0,33,0.00,,---,0.00,VWS V14.00,2013-03-11 12:30:00,
2013-03-11 06:35:00,42.9,15.1,29.80,West,279,0.0,9.0,32,0.00,,---,0.00,VWS V14.00,2013-03-11 12:35:00,
2013-03-11 06:40:00,42.8,15.0,29.80,West,263,2.0,11.0,32,0.00,,---,0.00,VWS V14.00,2013-03-11 12:40:00,
2013-03-11 06:45:00,42.7,14.9,29.80,WNW,298,5.0,10.0,32,0.00,,---,0.00,VWS V14.00,2013-03-11 12:45:00,
2013-03-11 06:50:00,42.3,15.3,29.80,WNW,297,6.0,13.0,33,0.00,,---,0.00,VWS V14.00,2013-03-11 12:50:00,
2013-03-11 06:55:00,42.0,15.7,29.79,WNW,282,0.0,0.0,34,0.00,,---,0.00,VWS V14.00,2013-03-11 12:55:00,
2013-03-11 07:00:00,41.2,16.3,29.80,North,5,0.0,7.0,36,0.00,,---,0.00,VWS V14.00,2013-03-11 13:00:00,
2013-03-11 07:05:00,40.9,15.4,29.81,ENE,76,3.0,3.0,35,0.00,,---,0.00,VWS V14.00,2013-03-11 13:05:00,
2013-03-11 07:10:00,40.7,16.5,29.81,North,5,16.0,16.0,37,0.00,,---,0.00,VWS V14.00,2013-03-11 13:10:00,
2013-03-11 07:16:00,40.6,16.4,29.81,NNW,339,4.0,6.0,37,0.00,,---,0.00,VWS V14.00,2013-03-11 13:16:00,
2013-03-11 07:21:00,40.6,15.8,29.81,NW,325,2.0,8.0,36,0.00,,---,0.00,VWS V14.00,2013-03-11 13:21:00,
2013-03-11 07:26:00,40.7,15.2,29.81,North,360,6.0,6.0,35,0.00,,---,0.00,VWS V14.00,2013-03-11 13:26:00,
2013-03-11 07:32:00,41.1,16.2,29.81,North,355,7.0,14.0,36,0.00,,---,0.00,VWS V14.00,2013-03-11 13:32:00,
2013-03-11 07:37:00,41.2,16.3,29.81,NNW,348,5.0,11.0,36,0.00,,---,0.00,VWS V14.00,2013-03-11 13:37:00,
2013-03-11 07:42:00,41.5,15.9,29.81,North,355,3.0,11.0,35,0.00,,---,0.00,VWS V14.00,2013-03-11 13:42:00,
2013-03-11 07:47:00,41.5,16.5,29.81,ENE,67,0.0,8.0,36,0.00,,---,0.00,VWS V14.00,2013-03-11 13:47:00,
2013-03-11 07:52:00,41.4,16.5,29.82,NE,38,6.0,8.0,36,0.00,,---,0.00,VWS V14.00,2013-03-11 13:52:00,
2013-03-11 07:58:00,41.4,16.5,29.82,North,9,5.0,6.0,36,0.00,,---,0.00,VWS V14.00,2013-03-11 13:58:00,
2013-03-11 08:03:00,41.7,16.7,29.82,NNW,331,0.0,6.0,36,0.00,,---,0.00,VWS V14.00,2013-03-11 14:03:00,
2013-03-11 08:08:00,41.7,16.1,29.81,NNW,348,0.0,4.0,35,0.00,,---,0.00,VWS V14.00,2013-03-11 14:08:00,
2013-03-11 08:13:00,41.8,16.8,29.81,NE,36,0.0,6.0,36,0.00,,---,0.00,VWS V14.00,2013-03-11 14:13:00,
2013-03-11 08:18:00,42.1,16.4,29.81,NE,44,1.0,7.0,35,0.00,,---,0.00,VWS V14.00,2013-03-11 14:18:00,
2013-03-11 08:23:00,42.7,15.6,29.82,SSE,168,5.0,16.0,33,0.00,,---,0.00,VWS V14.00,2013-03-11 14:23:00,
2013-03-11 08:28:00,43.0,15.9,29.81,ENE,75,4.0,10.0,33,0.00,,---,0.00,VWS V14.00,2013-03-11 14:28:00,
2013-03-11 08:34:00,43.2,16.1,29.82,ENE,65,4.0,10.0,33,0.00,,---,0.00,VWS V14.00,2013-03-11 14:34:00,
2013-03-11 08:39:00,43.3,16.1,29.82,East,79,5.0,7.0,33,0.00,,---,0.00,VWS V14.00,2013-03-11 14:39:00,
2013-03-11 08:44:00,43.4,15.5,29.82,NNW,333,8.0,18.0,32,0.00,,---,0.00,VWS V14.00,2013-03-11 14:44:00,
2013-03-11 08:49:00,43.3,16.1,29.83,NE,34,1.0,13.0,33,0.00,,---,0.00,VWS V14.00,2013-03-11 14:49:00,
2013-03-11 08:54:00,43.1,16.0,29.83,West,279,3.0,16.0,33,0.00,,---,0.00,VWS V14.00,2013-03-11 14:54:00,
2013-03-11 08:59:00,43.1,16.0,29.83,NW,317,3.0,12.0,33,0.00,,---,0.00,VWS V14.00,2013-03-11 14:59:00,
2013-03-11 09:04:00,43.1,16.7,29.83,North,5,5.0,12.0,34,0.00,,---,0.00,VWS V14.00,2013-03-11 15:04:00,
2013-03-11 09:09:00,43.6,15.7,29.82,WNW,297,5.0,11.0,32,0.00,,---,0.00,VWS V14.00,2013-03-11 15:09:00,
2013-03-11 09:15:00,44.4,16.4,29.81,SE,124,0.0,11.0,32,0.00,,---,0.00,VWS V14.00,2013-03-11 15:15:00,
2013-03-11 09:20:00,45.1,17.7,29.81,NNW,328,4.0,6.0,33,0.00,,---,0.00,VWS V14.00,2013-03-11 15:20:00,
2013-03-11 09:25:00,45.6,17.5,29.82,WSW,256,0.0,8.0,32,0.00,,---,0.00,VWS V14.00,2013-03-11 15:25:00,
2013-03-11 09:30:00,46.0,17.1,29.82,SSW,209,5.0,7.0,31,0.00,,---,0.00,VWS V14.00,2013-03-11 15:30:00,
2013-03-11 09:36:00,45.8,16.9,29.81,SE,134,4.0,8.0,31,0.00,,---,0.00,VWS V14.00,2013-03-11 15:36:00,
2013-03-11 09:42:00,46.1,17.2,29.81,East,88,5.0,20.0,31,0.00,,---,0.00,VWS V14.00,2013-03-11 15:42:00,
2013-03-11 09:47:00,46.3,17.3,29.81,ENE,71,1.0,14.0,31,0.00,,---,0.00,VWS V14.00,2013-03-11 15:47:00,
2013-03-11 09:52:00,46.2,18.0,29.81,NNE,29,5.0,14.0,32,0.00,,---,0.00,VWS V14.00,2013-03-11 15:52:00,
2013-03-11 09:57:00,45.9,17.0,29.81,NW,304,5.0,10.0,31,0.00,,---,0.00,VWS V14.00,2013-03-11 15:57:00,
2013-03-11 10:02:00,45.8,16.9,29.81,NW,306,12.0,17.0,31,0.00,,---,0.00,VWS V14.00,2013-03-11 16:02:00,
2013-03-11 10:08:00,45.9,19.1,29.81,NE,54,5.0,11.0,34,0.00,,---,0.00,VWS V14.00,2013-03-11 16:08:00,
2013-03-11 10:13:00,45.9,18.4,29.80,ENE,57,8.0,14.0,33,0.00,,---,0.00,VWS V14.00,2013-03-11 16:13:00,
2013-03-11 10:18:00,45.8,18.4,29.81,NE,56,6.0,12.0,33,0.00,,---,0.00,VWS V14.00,2013-03-11 16:18:00,
2013-03-11 10:23:00,45.6,18.2,29.81,ENE,63,0.0,22.0,33,0.00,,---,0.00,VWS V14.00,2013-03-11 16:23:00,
2013-03-11 10:28:00,45.6,20.2,29.81,NNW,347,1.0,11.0,36,0.00,,---,0.00,VWS V14.00,2013-03-11 16:28:00,
2013-03-11 10:34:00,46.0,19.9,29.81,NNE,19,2.0,20.0,35,0.00,,---,0.00,VWS V14.00,2013-03-11 16:34:00,
2013-03-11 10:39:00,45.7,20.9,29.81,NNE,24,10.0,23.0,37,0.00,,---,0.00,VWS V14.00,2013-03-11 16:39:00,
2013-03-11 10:44:00,45.8,19.7,29.80,North,9,12.0,23.0,35,0.00,,---,0.00,VWS V14.00,2013-03-11 16:44:00,
2013-03-11 10:49:00,46.0,20.6,29.80,ENE,76,2.0,13.0,36,0.00,,---,0.00,VWS V14.00,2013-03-11 16:49:00,
2013-03-11 10:54:00,46.5,20.3,29.80,ENE,71,5.0,17.0,35,0.00,,---,0.00,VWS V14.00,2013-03-11 16:54:00,
2013-03-11 10:59:00,46.7,21.2,29.80,NE,34,9.0,13.0,36,0.00,,---,0.00,VWS V14.00,2013-03-11 16:59:00,
2013-03-11 11:05:00,46.6,21.7,29.80,North,9,13.0,23.0,37,0.00,,---,0.00,VWS V14.00,2013-03-11 17:05:00,
2013-03-11 11:10:00,46.2,21.4,29.80,North,349,7.0,19.0,37,0.00,,---,0.00,VWS V14.00,2013-03-11 17:10:00,
2013-03-11 11:15:00,46.0,21.8,29.79,NNE,28,7.0,22.0,38,0.00,,---,0.00,VWS V14.00,2013-03-11 17:15:00,
2013-03-11 11:20:00,46.3,20.8,29.78,East,81,8.0,14.0,36,0.00,,---,0.00,VWS V14.00,2013-03-11 17:20:00,
2013-03-11 11:25:00,47.0,22.1,29.79,NNE,12,9.0,9.0,37,0.00,,---,0.00,VWS V14.00,2013-03-11 17:25:00,
2013-03-11 11:30:00,47.4,21.8,29.78,North,360,3.0,17.0,36,0.00,,---,0.00,VWS V14.00,2013-03-11 17:30:00,
2013-03-11 11:36:00,47.7,22.1,29.78,North,11,8.0,10.0,36,0.00,,---,0.00,VWS V14.00,2013-03-11 17:36:00,
2013-03-11 11:41:00,47.8,20.1,29.78,NNE,28,0.0,12.0,33,0.00,,---,0.00,VWS V14.00,2013-03-11 17:41:00,
2013-03-11 11:46:00,48.2,21.2,29.77,NNE,26,11.0,13.0,34,0.00,,---,0.00,VWS V14.00,2013-03-11 17:46:00,
2013-03-11 11:51:00,48.5,20.0,29.78,NE,53,4.0,13.0,32,0.00,,---,0.00,VWS V14.00,2013-03-11 17:51:00,
2013-03-11 11:56:00,48.5,20.0,29.77,East,80,5.0,9.0,32,0.00,,---,0.00,VWS V14.00,2013-03-11 17:56:00,
2013-03-11 12:02:00,49.0,21.2,29.76,South,179,0.0,12.0,33,0.00,,---,0.00,VWS V14.00,2013-03-11 18:02:00,
2013-03-11 12:07:00,49.8,20.4,29.76,WNW,282,1.0,8.0,31,0.00,,---,0.00,VWS V14.00,2013-03-11 18:07:00,
2013-03-11 12:12:00,49.9,21.2,29.76,NE,37,9.0,11.0,32,0.00,,---,0.00,VWS V14.00,2013-03-11 18:12:00,
2013-03-11 12:17:00,49.2,20.6,29.75,NE,52,3.0,11.0,32,0.00,,---,0.00,VWS V14.00,2013-03-11 18:17:00,
2013-03-11 12:22:00,48.5,20.0,29.75,West,281,1.0,14.0,32,0.00,,---,0.00,VWS V14.00,2013-03-11 18:22:00,
2013-03-11 12:27:00,47.9,20.2,29.74,East,96,1.0,7.0,33,0.00,,---,0.00,VWS V14.00,2013-03-11 18:27:00,
2013-03-11 12:32:00,47.6,20.6,29.74,ENE,64,6.0,14.0,34,0.00,,---,0.00,VWS V14.00,2013-03-11 18:32:00,
2013-03-11 12:37:00,47.6,22.0,29.73,SE,128,9.0,15.0,36,0.00,,---,0.00,VWS V14.00,2013-03-11 18:37:00,
2013-03-11 12:43:00,47.5,20.5,29.73,NNW,347,7.0,15.0,34,0.00,,---,0.00,VWS V14.00,2013-03-11 18:43:00,
2013-03-11 12:48:00,47.4,21.1,29.74,NNE,30,12.0,17.0,35,0.00,,---,0.00,VWS V14.00,2013-03-11 18:48:00,
2013-03-11 12:53:00,47.0,22.1,29.74,NNE,16,6.0,17.0,37,0.00,,---,0.00,VWS V14.00,2013-03-11 18:53:00,
2013-03-11 12:58:00,46.9,22.0,29.73,NE,34,4.0,11.0,37,0.00,,---,0.00,VWS V14.00,2013-03-11 18:58:00,
2013-03-11 13:03:00,46.9,21.4,29.72,WNW,296,1.0,17.0,36,0.00,,---,0.00,VWS V14.00,2013-03-11 19:03:00,
2013-03-11 13:08:00,47.3,21.7,29.72,ENE,62,7.0,11.0,36,0.00,,---,0.00,VWS V14.00,2013-03-11 19:08:00,
2013-03-11 13:14:00,48.1,21.8,29.72,NE,39,7.0,18.0,35,0.00,,---,0.00,VWS V14.00,2013-03-11 19:14:00,
2013-03-11 13:19:00,49.0,21.9,29.72,North,349,10.0,23.0,34,0.00,,---,0.00,VWS V14.00,2013-03-11 19:19:00,
2013-03-11 13:24:00,49.9,24.0,29.71,NE,53,10.0,23.0,36,0.00,,---,0.00,VWS V14.00,2013-03-11 19:24:00,
2013-03-11 13:29:00,50.4,22.4,29.70,North,355,11.0,22.0,33,0.00,,---,0.00,VWS V14.00,2013-03-11 19:29:00,
2013-03-11 13:34:00,50.6,22.6,29.71,NE,41,3.0,22.0,33,0.00,,---,0.00,VWS V14.00,2013-03-11 19:34:00,
2013-03-11 13:40:00,50.7,22.7,29.71,ESE,104,4.0,21.0,33,0.00,,---,0.00,VWS V14.00,2013-03-11 19:40:00,
2013-03-11 13:45:00,51.2,22.4,29.70,ENE,71,7.0,21.0,32,0.00,,---,0.00,VWS V14.00,2013-03-11 19:45:00,
2013-03-11 13:50:00,51.5,22.6,29.70,SSW,202,6.0,22.0,32,0.00,,---,0.00,VWS V14.00,2013-03-11 19:50:00,
2013-03-11 13:55:00,51.3,21.7,29.71,NNW,343,7.0,22.0,31,0.00,,---,0.00,VWS V14.00,2013-03-11 19:55:00,
2013-03-11 14:00:00,51.1,23.0,29.71,East,79,19.0,19.0,33,0.00,,---,0.00,VWS V14.00,2013-03-11 20:00:00,
2013-03-11 14:05:00,51.1,22.3,29.71,NE,50,7.0,13.0,32,0.00,,---,0.00,VWS V14.00,2013-03-11 20:05:00,
2013-03-11 14:11:00,51.3,21.7,29.70,NE,51,10.0,14.0,31,0.00,,---,0.00,VWS V14.00,2013-03-11 20:11:00,
2013-03-11 14:16:00,51.5,21.9,29.70,NE,56,1.0,4.0,31,0.00,,---,0.00,VWS V14.00,2013-03-11 20:16:00,
2013-03-11 14:21:00,51.7,22.1,29.69,NNE,27,7.0,10.0,31,0.00,,---,0.00,VWS V14.00,2013-03-11 20:21:00,
2013-03-11 14:26:00,51.9,21.5,29.70,NE,34,7.0,12.0,30,0.00,,---,0.00,VWS V14.00,2013-03-11 20:26:00,
2013-03-11 14:31:00,51.8,22.1,29.70,NW,322,2.0,13.0,31,0.00,,---,0.00,VWS V14.00,2013-03-11 20:31:00,
2013-03-11 14:36:00,52.5,23.5,29.69,NE,42,3.0,10.0,32,0.00,,---,0.00,VWS V14.00,2013-03-11 20:36:00,
2013-03-11 14:42:00,52.7,23.7,29.69,NNE,30,4.0,10.0,32,0.00,,---,0.00,VWS V14.00,2013-03-11 20:42:00,
2013-03-11 14:47:00,52.9,21.5,29.69,North,5,5.0,16.0,29,0.00,,---,0.00,VWS V14.00,2013-03-11 20:47:00,
2013-03-11 14:52:00,52.8,21.4,29.69,ENE,57,4.0,16.0,29,0.00,,---,0.00,VWS V14.00,2013-03-11 20:52:00,
2013-03-11 14:57:00,52.8,20.6,29.69,SE,128,1.0,7.0,28,0.00,,---,0.00,VWS V14.00,2013-03-11 20:57:00,
2013-03-11 15:02:00,53.6,20.5,29.68,SE,140,0.0,11.0,27,0.00,,---,0.00,VWS V14.00,2013-03-11 21:02:00,
2013-03-11 15:07:00,53.8,17.9,29.68,NE,50,2.0,14.0,24,0.00,,---,0.00,VWS V14.00,2013-03-11 21:07:00,
2013-03-11 15:12:00,53.9,20.7,29.68,ENE,76,2.0,15.0,27,0.00,,---,0.00,VWS V14.00,2013-03-11 21:12:00,
2013-03-11 15:17:00,53.7,18.7,29.68,North,355,11.0,21.0,25,0.00,,---,0.00,VWS V14.00,2013-03-11 21:17:00,
2013-03-11 15:22:00,53.8,17.9,29.68,West,274,9.0,21.0,24,0.00,,---,0.00,VWS V14.00,2013-03-11 21:22:00,
2013-03-11 15:27:00,53.8,17.9,29.68,NE,49,3.0,11.0,24,0.00,,---,0.00,VWS V14.00,2013-03-11 21:27:00,
2013-03-11 15:33:00,53.6,18.6,29.69,NNW,329,11.0,20.0,25,0.00,,---,0.00,VWS V14.00,2013-03-11 21:33:00,
2013-03-11 15:38:00,53.2,19.2,29.68,SE,141,8.0,20.0,26,0.00,,---,0.00,VWS V14.00,2013-03-11 21:38:00,
2013-03-11 15:43:00,52.8,17.0,29.68,East,89,1.0,20.0,24,0.00,,---,0.00,VWS V14.00,2013-03-11 21:43:00,
2013-03-11 15:48:00,52.7,16.9,29.68,ENE,72,2.0,17.0,24,0.00,,---,0.00,VWS V14.00,2013-03-11 21:48:00,
2013-03-11 15:54:00,52.7,18.8,29.68,NW,304,12.0,17.0,26,0.00,,---,0.00,VWS V14.00,2013-03-11 21:54:00,
2013-03-11 15:59:00,52.9,19.9,29.69,NNE,27,7.0,16.0,27,0.00,,---,0.00,VWS V14.00,2013-03-11 21:59:00,
2013-03-11 16:04:00,52.6,19.6,29.68,NE,55,19.0,21.0,27,0.00,,---,0.00,VWS V14.00,2013-03-11 22:04:00,
2013-03-11 16:09:00,52.1,18.3,29.69,NE,54,10.0,23.0,26,0.00,,---,0.00,VWS V14.00,2013-03-11 22:09:00,
2013-03-11 16:15:00,52.0,19.1,29.69,ENE,65,4.0,23.0,27,0.00,,---,0.00,VWS V14.00,2013-03-11 22:15:00,
2013-03-11 16:20:00,52.1,20.0,29.68,NE,36,9.0,21.0,28,0.00,,---,0.00,VWS V14.00,2013-03-11 22:20:00,
2013-03-11 16:25:00,51.9,19.0,29.69,NNE,15,6.0,21.0,27,0.00,,---,0.00,VWS V14.00,2013-03-11 22:25:00,
2013-03-11 16:30:00,51.8,18.9,29.69,WSW,254,4.0,13.0,27,0.00,,---,0.00,VWS V14.00,2013-03-11 22:30:00,
2013-03-11 16:36:00,51.8,19.8,29.70,North,11,9.0,14.0,28,0.00,,---,0.00,VWS V14.00,2013-03-11 22:36:00,
2013-03-11 16:41:00,51.9,19.0,29.70,North,360,4.0,17.0,27,0.00,,---,0.00,VWS V14.00,2013-03-11 22:41:00,
2013-03-11 16:46:00,51.7,18.8,29.71,NE,45,11.0,15.0,27,0.00,,---,0.00,VWS V14.00,2013-03-11 22:46:00,
2013-03-11 16:51:00,51.5,20.3,29.71,NNE,25,10.0,15.0,29,0.00,,---,0.00,VWS V14.00,2013-03-11 22:51:00,
2013-03-11 16:57:00,50.5,25.9,29.73,East,97,6.0,21.0,38,0.00,,---,0.00,VWS V14.00,2013-03-11 22:57:00,
2013-03-11 17:02:00,44.0,28.0,29.76,NNE,25,5.0,24.0,53,0.00,,---,0.00,VWS V14.00,2013-03-11 23:02:00,
2013-03-11 17:07:00,39.4,27.5,29.77,ENE,65,8.0,24.0,62,0.00,,---,0.00,VWS V14.00,2013-03-11 23:07:00,
2013-03-11 17:12:00,37.6,28.0,29.77,North,5,15.0,24.0,68,0.00,,---,0.00,VWS V14.00,2013-03-11 23:12:00,
2013-03-11 17:18:00,36.7,28.2,29.77,ENE,75,10.0,23.0,71,0.00,,---,0.00,VWS V14.00,2013-03-11 23:18:00,
2013-03-11 17:23:00,35.9,28.4,29.77,NNE,31,22.0,26.0,74,0.00,,---,0.00,VWS V14.00,2013-03-11 23:23:00,
2013-03-11 17:28:00,35.3,28.2,29.78,NE,53,10.0,21.0,75,0.00,,---,0.00,VWS V14.00,2013-03-11 23:28:00,
2013-03-11 17:33:00,35.0,28.2,29.79,ENE,63,15.0,21.0,76,0.00,,---,0.00,VWS V14.00,2013-03-11 23:33:00,
2013-03-11 17:38:00,34.7,28.2,29.80,ENE,65,7.0,20.0,77,0.00,,---,0.00,VWS V14.00,2013-03-11 23:38:00,
2013-03-11 17:44:00,34.4,28.0,29.80,NE,44,7.0,24.0,77,0.00,,---,0.00,VWS V14.00,2013-03-11 23:44:00,
2013-03-11 17:49:00,34.3,28.2,29.81,NNE,12,6.0,13.0,78,0.00,,---,0.00,VWS V14.00,2013-03-11 23:49:00,
2013-03-11 17:54:00,34.0,27.9,29.81,ENE,64,6.0,14.0,78,0.00,,---,0.00,VWS V14.00,2013-03-11 23:54:00,
2013-03-11 17:59:00,33.8,27.7,29.81,NE,38,5.0,14.0,78,0.00,,---,0.00,VWS V14.00,2013-03-11 23:59:00,
2013-03-11 18:04:00,33.5,27.4,29.81,ENE,64,3.0,14.0,78,0.00,,---,0.00,VWS V14.00,2013-03-12 00:04:00,
2013-03-11 18:09:00,33.4,27.6,29.81,ENE,63,5.0,12.0,79,0.00,,---,0.00,VWS V14.00,2013-03-12 00:09:00,
2013-03-11 18:14:00,33.2,27.4,29.82,NNE,27,4.0,14.0,79,0.00,,---,0.00,VWS V14.00,2013-03-12 00:14:00,
2013-03-11 18:19:00,32.9,27.4,29.83,NE,44,7.0,11.0,80,0.00,,---,0.00,VWS V14.00,2013-03-12 00:19:00,
2013-03-11 18:25:00,32.4,26.9,29.83,East,94,0.0,11.0,80,0.00,,---,0.00,VWS V14.00,2013-03-12 00:25:00,
2013-03-11 18:30:00,32.2,27.0,29.83,ENE,66,3.0,11.0,81,0.00,,---,0.00,VWS V14.00,2013-03-12 00:30:00,
2013-03-11 18:35:00,32.1,27.2,29.84,ESE,103,1.0,11.0,82,0.00,,---,0.00,VWS V14.00,2013-03-12 00:35:00,
2013-03-11 18:40:00,32.0,27.1,29.84,East,79,5.0,8.0,82,0.00,,---,0.00,VWS V14.00,2013-03-12 00:40:00,
2013-03-11 18:45:00,31.9,27.3,29.84,NE,40,5.0,8.0,83,0.00,,---,0.00,VWS V14.00,2013-03-12 00:45:00,
2013-03-11 18:50:00,31.8,27.5,29.84,ENE,73,0.0,8.0,84,0.00,,---,0.00,VWS V14.00,2013-03-12 00:50:00,
2013-03-11 18:56:00,31.7,27.4,29.84,NE,36,6.0,6.0,84,0.00,,---,0.00,VWS V14.00,2013-03-12 00:56:00,
2013-03-11 19:01:00,31.5,27.5,29.85,North,10,2.0,10.0,85,0.00,,---,0.00,VWS V14.00,2013-03-12 01:01:00,
2013-03-11 19:06:00,31.4,27.4,29.85,ENE,72,3.0,4.0,85,0.00,,---,0.00,VWS V14.00,2013-03-12 01:06:00,
2013-03-11 19:12:00,31.2,27.5,29.85,NE,44,0.0,8.0,86,0.00,,---,0.00,VWS V14.00,2013-03-12 01:12:00,
2013-03-11 19:17:00,31.0,27.6,29.85,NE,47,5.0,5.0,87,0.00,,---,0.00,VWS V14.00,2013-03-12 01:17:00,
2013-03-11 19:22:00,30.8,27.7,29.85,NE,45,0.0,7.0,88,0.00,,---,0.00,VWS V14.00,2013-03-12 01:22:00,
2013-03-11 19:27:00,30.7,27.9,29.85,SE,135,2.0,5.0,89,0.00,,---,0.00,VWS V14.00,2013-03-12 01:27:00,
2013-03-11 19:32:00,30.6,27.8,29.85,SE,135,0.0,5.0,89,0.00,,---,0.00,VWS V14.00,2013-03-12 01:32:00,
2013-03-11 19:38:00,30.5,27.9,29.85,SE,135,2.0,4.0,90,0.00,,---,0.00,VWS V14.00,2013-03-12 01:38:00,
2013-03-11 19:43:00,30.4,27.8,29.86,SE,135,0.0,4.0,90,0.00,,---,0.00,VWS V14.00,2013-03-12 01:43:00,
2013-03-11 19:48:00,30.3,27.7,29.86,SE,135,0.0,0.0,90,0.00,,---,0.00,VWS V14.00,2013-03-12 01:48:00,
2013-03-11 19:53:00,30.3,28.0,29.86,SE,135,0.0,0.0,91,0.00,,---,0.00,VWS V14.00,2013-03-12 01:53:00,
2013-03-11 19:58:00,30.2,27.9,29.87,SE,135,0.0,0.0,91,0.00,,---,0.00,VWS V14.00,2013-03-12 01:58:00,
2013-03-11 20:03:00,30.2,27.9,29.87,SE,135,0.0,4.0,91,0.00,,---,0.00,VWS V14.00,2013-03-12 02:03:00,
2013-03-11 20:08:00,30.2,28.2,29.87,SE,135,0.0,0.0,92,0.00,,---,0.00,VWS V14.00,2013-03-12 02:08:00,
2013-03-11 20:14:00,30.2,28.2,29.87,SE,135,0.0,1.0,92,0.00,,---,0.00,VWS V14.00,2013-03-12 02:14:00,
2013-03-11 20:19:00,30.3,28.3,29.87,SE,135,1.0,4.0,92,0.00,,---,0.00,VWS V14.00,2013-03-12 02:19:00,
2013-03-11 20:24:00,30.2,28.2,29.88,SE,135,0.0,4.0,92,0.00,,---,0.00,VWS V14.00,2013-03-12 02:24:00,
2013-03-11 20:29:00,30.2,28.2,29.89,SE,135,0.0,0.0,92,0.00,,---,0.00,VWS V14.00,2013-03-12 02:29:00,
2013-03-11 20:34:00,30.1,28.1,29.91,East,97,0.0,0.0,92,0.00,,---,0.00,VWS V14.00,2013-03-12 02:34:00,
2013-03-11 20:39:00,30.2,28.2,29.92,NE,36,3.0,4.0,92,0.00,,---,0.00,VWS V14.00,2013-03-12 02:39:00,
2013-03-11 20:44:00,30.2,28.4,29.90,NE,36,0.0,4.0,93,0.00,,---,0.00,VWS V14.00,2013-03-12 02:44:00,
2013-03-11 20:49:00,30.1,28.3,29.90,NE,36,0.0,0.0,93,0.00,,---,0.00,VWS V14.00,2013-03-12 02:49:00,
2013-03-11 20:55:00,30.1,28.3,29.90,NE,36,0.0,0.0,93,0.00,,---,0.00,VWS V14.00,2013-03-12 02:55:00,
2013-03-11 21:00:00,30.1,28.3,29.90,NE,36,0.0,0.0,93,0.00,,---,0.00,VWS V14.00,2013-03-12 03:00:00,
2013-03-11 21:05:00,30.1,28.3,29.91,NE,36,0.0,0.0,93,0.00,,---,0.00,VWS V14.00,2013-03-12 03:05:00,
2013-03-11 21:10:00,30.1,28.3,29.90,NE,36,0.0,0.0,93,0.00,,---,0.00,VWS V14.00,2013-03-12 03:10:00,
2013-03-11 21:15:00,30.1,28.3,29.90,NE,36,0.0,0.0,93,0.00,,---,0.00,VWS V14.00,2013-03-12 03:15:00,
2013-03-11 21:20:00,30.1,28.3,29.91,NE,36,0.0,0.0,93,0.00,,---,0.00,VWS V14.00,2013-03-12 03:20:00,
2013-03-11 21:25:00,30.1,28.3,29.91,NE,38,0.0,0.0,93,0.00,,---,0.00,VWS V14.00,2013-03-12 03:25:00,
2013-03-11 21:30:00,30.1,28.3,29.91,NE,38,0.0,0.0,93,0.00,,---,0.00,VWS V14.00,2013-03-12 03:30:00,
2013-03-11 21:36:00,29.9,28.1,29.91,NE,38,0.0,0.0,93,0.00,,---,0.00,VWS V14.00,2013-03-12 03:36:00,
2013-03-11 21:41:00,29.8,28.0,29.91,ESE,110,0.0,0.0,93,0.00,,---,0.00,VWS V14.00,2013-03-12 03:41:00,
2013-03-11 21:46:00,30.0,28.2,29.91,SSE,163,0.0,0.0,93,0.00,,---,0.00,VWS V14.00,2013-03-12 03:46:00,
2013-03-11 21:52:00,30.0,28.2,29.91,SSW,205,0.0,0.0,93,0.00,,---,0.00,VWS V14.00,2013-03-12 03:52:00,
2013-03-11 21:57:00,30.0,28.2,29.91,SSW,213,0.0,0.0,93,0.00,,---,0.00,VWS V14.00,2013-03-12 03:57:00,
2013-03-11 22:00:00,30.1,28.3,29.91,SSW,202,0.0,0.0,93,0.00,,---,0.00,VWS V14.00,2013-03-12 04:00:00,
2013-03-11 22:02:00,30.1,28.3,29.91,SSW,200,0.0,0.0,93,0.00,,---,0.00,VWS V14.00,2013-03-12 04:02:00,
2013-03-11 22:07:00,30.1,28.6,29.92,SSW,207,0.0,0.0,94,0.00,,---,0.00,VWS V14.00,2013-03-12 04:07:00,
2013-03-11 22:12:00,30.1,28.6,29.92,SW,218,0.0,0.0,94,0.00,,---,0.00,VWS V14.00,2013-03-12 04:12:00,
2013-03-11 22:17:00,30.2,28.4,29.92,SW,235,3.0,5.0,93,0.00,,---,0.00,VWS V14.00,2013-03-12 04:17:00,
2013-03-11 22:22:00,30.3,28.5,29.93,SW,236,0.0,5.0,93,0.00,,---,0.00,VWS V14.00,2013-03-12 04:22:00,
2013-03-11 22:28:00,30.4,28.6,29.93,SW,236,0.0,0.0,93,0.00,,---,0.00,VWS V14.00,2013-03-12 04:28:00,
2013-03-11 22:33:00,30.5,28.7,29.94,WSW,249,3.0,5.0,93,0.00,,---,0.00,VWS V14.00,2013-03-12 04:33:00,
2013-03-11 22:38:00,30.7,28.7,29.94,West,267,2.0,5.0,92,0.00,,---,0.00,VWS V14.00,2013-03-12 04:38:00,
2013-03-11 22:43:00,30.8,28.8,29.94,West,273,0.0,5.0,92,0.00,,---,0.00,VWS V14.00,2013-03-12 04:43:00,
2013-03-11 22:48:00,30.8,28.8,29.95,West,274,0.0,1.0,92,0.00,,---,0.00,VWS V14.00,2013-03-12 04:48:00,
2013-03-11 22:53:00,30.8,28.8,29.95,West,279,5.0,5.0,92,0.00,,---,0.00,VWS V14.00,2013-03-12 04:53:00,
2013-03-11 22:58:00,30.8,28.8,29.94,SSW,213,0.0,1.0,92,0.00,,---,0.00,VWS V14.00,2013-03-12 04:58:00,
2013-03-11 23:03:00,30.7,28.7,29.94,SW,218,0.0,1.0,92,0.00,,---,0.00,VWS V14.00,2013-03-12 05:03:00,
2013-03-11 23:08:00,30.6,28.6,29.94,South,187,0.0,0.0,92,0.00,,---,0.00,VWS V14.00,2013-03-12 05:08:00,
2013-03-11 23:14:00,30.5,28.5,29.95,South,187,0.0,4.0,92,0.00,,---,0.00,VWS V14.00,2013-03-12 05:14:00,
2013-03-11 23:19:00,30.4,28.4,29.95,South,187,0.0,0.0,92,0.00,,---,0.00,VWS V14.00,2013-03-12 05:19:00,
2013-03-11 23:24:00,30.3,28.3,29.94,South,187,0.0,0.0,92,0.00,,---,0.00,VWS V14.00,2013-03-12 05:24:00,
2013-03-11 23:29:00,30.4,28.4,29.95,South,187,0.0,0.0,92,0.00,,---,0.00,VWS V14.00,2013-03-12 05:29:00,
2013-03-11 23:34:00,30.5,28.5,29.95,SW,223,0.0,6.0,92,0.00,,---,0.00,VWS V14.00,2013-03-12 05:34:00,
2013-03-11 23:39:00,30.6,28.6,29.95,WSW,244,2.0,4.0,92,0.00,,---,0.00,VWS V14.00,2013-03-12 05:39:00,
2013-03-11 23:45:00,30.7,28.4,29.95,WSW,251,4.0,5.0,91,0.00,,---,0.00,VWS V14.00,2013-03-12 05:45:00,
2013-03-11 23:50:00,30.9,28.6,29.95,WSW,257,4.0,4.0,91,0.00,,---,0.00,VWS V14.00,2013-03-12 05:50:00,
2013-03-11 23:55:00,31.0,28.4,29.95,West,260,3.0,5.0,90,0.00,,---,0.00,VWS V14.00,2013-03-12 05:55:00,